MSC Roma — D5OB2 — position and weather

sailwx.info

Track history (hours):
 
Tides and Currents Weather Stations Pressure Air Temp Water Temp Dewpoint Dewpoint Depression Visibility Wind Speed Wind Dir Waves Ship Positions

MSC Roma

Last reported at 2018-Jun-16 00:01 UTC. Time now 2018-Jun-20 19:08 UTC.
Position N 24°14' E 118°16'.

Length 337 m; draft 10 m.

Type: Ship (hazmat cat A). MMSI: 636018075.

Date/timePositionNaut miles runAvg speedWind from/ knotsBaromVisibWave heightAir tempDewpointWater temp
2018-Jun-16 00:01N 24°14' E 118°16'013.5
2018-Jun-15 23:59N 24°14' E 118°16'612.0
2018-Jun-15 23:30N 24°19' E 118°12'612.5
2018-Jun-15 23:00N 24°23' E 118°07'611.6
2018-Jun-15 22:30N 24°26' E 118°02'1 1.4
2018-Jun-15 21:58N 24°27' E 118°01'0 0.0
2018-Jun-15 21:25N 24°27' E 118°01'0 0.0
2018-Jun-15 20:58N 24°27' E 118°01'0 0.0
2018-Jun-15 20:28N 24°27' E 118°01'0 0.0
2018-Jun-15 19:58N 24°27' E 118°01'0 0.0
2018-Jun-15 19:28N 24°27' E 118°01'0 0.0
2018-Jun-15 18:58N 24°27' E 118°01'0 0.0
2018-Jun-15 18:28N 24°27' E 118°01'0 0.0
2018-Jun-15 17:58N 24°27' E 118°01'0 0.0
2018-Jun-15 17:28N 24°27' E 118°01'0 0.0
2018-Jun-15 16:58N 24°27' E 118°01'0 0.0
2018-Jun-15 16:28N 24°27' E 118°01'0 0.0
2018-Jun-15 15:58N 24°27' E 118°01'0 0.0
2018-Jun-15 15:31N 24°27' E 118°01'0 0.0
2018-Jun-15 14:58N 24°27' E 118°01'0 0.0
2018-Jun-15 14:30N 24°27' E 118°01'0 0.0
2018-Jun-15 14:00N 24°27' E 118°01'0 0.0
2018-Jun-15 13:30N 24°27' E 118°01'0 0.0
2018-Jun-15 13:00N 24°27' E 118°01'0 0.0
2018-Jun-15 12:30N 24°27' E 118°01'0 0.6
2018-Jun-15 12:00N 24°26' E 118°01'4 7.3
2018-Jun-15 11:30N 24°25' E 118°05'510.8
2018-Jun-15 11:00N 24°21' E 118°09'713.7
2018-Jun-15 10:30N 24°16' E 118°14'43216.4
2018-Jun-14 08:12N 30°38' E 122°03'0 0.3
2018-Jun-14 06:40N 30°38' E 122°03'0 0.0
2018-Jun-14 06:25N 30°38' E 122°03'0 0.0
2018-Jun-14 05:55N 30°38' E 122°03'0 0.0
2018-Jun-14 05:10N 30°38' E 122°03'0 0.0
2018-Jun-13 21:36N 30°38' E 122°03'0 0.0
2018-Jun-13 21:21N 30°38' E 122°03'0 0.0
2018-Jun-13 20:57N 30°38' E 122°03'1 1.5
2018-Jun-13 20:30N 30°37' E 122°03'4 5.3
2018-Jun-13 19:50N 30°36' E 122°06'512.1
2018-Jun-13 19:24N 30°34' E 122°12'5 8.6
2018-Jun-13 18:52N 30°33' E 122°17'16 1.1
2018-Jun-13 04:53N 30°30' E 122°35'912.5
2018-Jun-13 04:10N 30°28' E 122°45'511.1
2018-Jun-13 03:46N 30°25' E 122°49'511.2
2018-Jun-13 03:17N 30°22' E 122°54'1912.3
2018-Jun-13 01:45N 30°07' E 123°08'41815.5
2018-Jun-11 22:46N 24°10' E 119°03'720.5
2018-Jun-11 22:26N 24°06' E 118°58'1720.8
2018-Jun-11 21:38N 23°56' E 118°43'321.0
2018-Jun-11 21:30N 23°54' E 118°41'1020.9
2018-Jun-11 21:00N 23°47' E 118°32'1120.7
2018-Jun-11 20:30N 23°40' E 118°24'1020.6
2018-Jun-11 20:00N 23°35' E 118°14'1420.7
2018-Jun-11 19:21N 23°27' E 118°02'720.5
2018-Jun-11 19:00N 23°23' E 117°56'1020.0
2018-Jun-11 18:30N 23°17' E 117°47'1019.8
2018-Jun-11 17:59N 23°11' E 117°38'1219.7
2018-Jun-11 17:23N 23°05' E 117°27'  
Track history (hours):
 
Tides and Currents Weather Stations Pressure Air Temp Water Temp Dewpoint Dewpoint Depression Visibility Wind Speed Wind Dir Waves Ship Positions

MSC Roma

Last reported at 2018-Jun-16 00:01 UTC. Time now 2018-Jun-20 19:08 UTC.
Position N 24°14' E 118°16'.

Length 337 m; draft 10 m.

Type: Ship (hazmat cat A). MMSI: 636018075.

Date/timePositionNaut miles runAvg speedWind from/ knotsBaromVisibWave heightAir tempDewpointWater temp
2018-Jun-16 00:01N 24°14' E 118°16'013.5
2018-Jun-15 23:59N 24°14' E 118°16'612.0
2018-Jun-15 23:30N 24°19' E 118°12'612.5
2018-Jun-15 23:00N 24°23' E 118°07'611.6
2018-Jun-15 22:30N 24°26' E 118°02'1 1.4
2018-Jun-15 21:58N 24°27' E 118°01'0 0.0
2018-Jun-15 21:25N 24°27' E 118°01'0 0.0
2018-Jun-15 20:58N 24°27' E 118°01'0 0.0
2018-Jun-15 20:28N 24°27' E 118°01'0 0.0
2018-Jun-15 19:58N 24°27' E 118°01'0 0.0
2018-Jun-15 19:28N 24°27' E 118°01'0 0.0
2018-Jun-15 18:58N 24°27' E 118°01'0 0.0
2018-Jun-15 18:28N 24°27' E 118°01'0 0.0
2018-Jun-15 17:58N 24°27' E 118°01'0 0.0
2018-Jun-15 17:28N 24°27' E 118°01'0 0.0
2018-Jun-15 16:58N 24°27' E 118°01'0 0.0
2018-Jun-15 16:28N 24°27' E 118°01'0 0.0
2018-Jun-15 15:58N 24°27' E 118°01'0 0.0
2018-Jun-15 15:31N 24°27' E 118°01'0 0.0
2018-Jun-15 14:58N 24°27' E 118°01'0 0.0
2018-Jun-15 14:30N 24°27' E 118°01'0 0.0
2018-Jun-15 14:00N 24°27' E 118°01'0 0.0
2018-Jun-15 13:30N 24°27' E 118°01'0 0.0
2018-Jun-15 13:00N 24°27' E 118°01'0 0.0
2018-Jun-15 12:30N 24°27' E 118°01'0 0.6
2018-Jun-15 12:00N 24°26' E 118°01'4 7.3
2018-Jun-15 11:30N 24°25' E 118°05'510.8
2018-Jun-15 11:00N 24°21' E 118°09'713.7
2018-Jun-15 10:30N 24°16' E 118°14'43216.4
2018-Jun-14 08:12N 30°38' E 122°03'0 0.3
2018-Jun-14 06:40N 30°38' E 122°03'0 0.0
2018-Jun-14 06:25N 30°38' E 122°03'0 0.0
2018-Jun-14 05:55N 30°38' E 122°03'0 0.0
2018-Jun-14 05:10N 30°38' E 122°03'0 0.0
2018-Jun-13 21:36N 30°38' E 122°03'0 0.0
2018-Jun-13 21:21N 30°38' E 122°03'0 0.0
2018-Jun-13 20:57N 30°38' E 122°03'1 1.5
2018-Jun-13 20:30N 30°37' E 122°03'4 5.3
2018-Jun-13 19:50N 30°36' E 122°06'512.1
2018-Jun-13 19:24N 30°34' E 122°12'5 8.6
2018-Jun-13 18:52N 30°33' E 122°17'16 1.1
2018-Jun-13 04:53N 30°30' E 122°35'912.5
2018-Jun-13 04:10N 30°28' E 122°45'511.1
2018-Jun-13 03:46N 30°25' E 122°49'511.2
2018-Jun-13 03:17N 30°22' E 122°54'1912.3
2018-Jun-13 01:45N 30°07' E 123°08'41815.5
2018-Jun-11 22:46N 24°10' E 119°03'720.5
2018-Jun-11 22:26N 24°06' E 118°58'1720.8
2018-Jun-11 21:38N 23°56' E 118°43'321.0
2018-Jun-11 21:30N 23°54' E 118°41'1020.9
2018-Jun-11 21:00N 23°47' E 118°32'1120.7
2018-Jun-11 20:30N 23°40' E 118°24'1020.6
2018-Jun-11 20:00N 23°35' E 118°14'1420.7
2018-Jun-11 19:21N 23°27' E 118°02'720.5
2018-Jun-11 19:00N 23°23' E 117°56'1020.0
2018-Jun-11 18:30N 23°17' E 117°47'1019.8
2018-Jun-11 17:59N 23°11' E 117°38'1219.7
2018-Jun-11 17:23N 23°05' E 117°27'  

Dump ship's entire track history